createdAt,value
2022-11-08T00:01:33.863Z,7.75
2022-11-08T00:06:54.731Z,7.82
2022-11-08T00:12:15.337Z,7.55
2022-11-08T00:17:18.486Z,7.72
2022-11-08T00:22:20.549Z,7.43
2022-11-08T00:27:24.023Z,5.97
2022-11-08T00:32:26.721Z,7.88
2022-11-08T00:37:28.500Z,6.70
2022-11-08T00:42:30.340Z,6.80
2022-11-08T00:47:32.103Z,6.03
2022-11-08T00:52:33.900Z,6.60
2022-11-08T00:57:54.039Z,7.63
2022-11-08T01:03:15.940Z,6.60
2022-11-08T01:08:19.865Z,8.32
2022-11-08T01:13:23.029Z,8.88
2022-11-08T01:18:25.150Z,11.90
2022-11-08T01:23:26.964Z,5.75
2022-11-08T01:28:28.756Z,6.32
2022-11-08T01:33:30.572Z,8.55
2022-11-08T01:38:32.323Z,4.93
2022-11-08T01:43:46.366Z,7.00
2022-11-08T01:49:14.427Z,6.90
2022-11-08T01:54:30.282Z,4.88
2022-11-08T01:59:34.460Z,7.80
2022-11-08T02:04:37.773Z,6.72
2022-11-08T02:09:41.845Z,4.72
2022-11-08T02:14:43.629Z,9.07
2022-11-08T02:19:50.837Z,8.20
2022-11-08T02:24:52.912Z,5.82
2022-11-08T02:29:55.804Z,5.10
2022-11-08T02:34:59.398Z,5.68
2022-11-08T02:40:01.264Z,5.55
2022-11-08T02:45:03.259Z,6.03
2022-11-08T02:50:05.626Z,6.85
2022-11-08T02:55:07.697Z,13.75
2022-11-08T03:00:10.346Z,9.15
2022-11-08T03:05:12.115Z,4.57
2022-11-08T03:10:14.770Z,5.10
2022-11-08T03:15:16.538Z,5.75
2022-11-08T03:20:18.586Z,10.38
2022-11-08T03:25:20.357Z,7.32
2022-11-08T03:30:22.202Z,7.30
2022-11-08T03:35:24.298Z,7.15
2022-11-08T03:40:26.766Z,5.63
2022-11-08T03:45:28.546Z,4.53
2022-11-08T03:50:30.390Z,6.30
2022-11-08T03:55:32.294Z,5.20
2022-11-08T04:00:34.090Z,5.75
2022-11-08T04:05:35.966Z,6.45
2022-11-08T04:10:37.847Z,10.27
2022-11-08T04:15:39.787Z,10.38
2022-11-08T04:21:05.765Z,5.93
2022-11-08T04:26:08.547Z,7.88
2022-11-08T04:31:14.051Z,8.73
2022-11-08T04:36:17.542Z,7.03
2022-11-08T04:41:22.257Z,6.60
2022-11-08T04:46:26.569Z,9.48
2022-11-08T04:51:31.051Z,6.45
2022-11-08T04:56:32.882Z,8.98
2022-11-08T05:01:34.811Z,9.68
2022-11-08T05:06:36.830Z,5.95
2022-11-08T05:11:38.608Z,7.15
2022-11-08T05:16:40.471Z,7.43
2022-11-08T05:22:00.791Z,6.38
2022-11-08T05:27:02.580Z,6.95
2022-11-08T05:32:04.523Z,8.27
2022-11-08T05:37:06.270Z,8.88
2022-11-08T05:42:08.026Z,7.30
2022-11-08T05:47:10.235Z,9.05
2022-11-08T05:52:11.966Z,10.85
2022-11-08T05:57:13.747Z,11.40
2022-11-08T06:02:17.177Z,11.02
2022-11-08T06:07:18.974Z,8.68
2022-11-08T06:12:20.844Z,7.80
2022-11-08T06:17:26.338Z,12.00
2022-11-08T06:22:32.639Z,11.15
2022-11-08T06:27:34.738Z,11.75
2022-11-08T06:32:36.478Z,9.75
2022-11-08T06:37:38.237Z,9.85
2022-11-08T06:42:40.084Z,10.90
2022-11-08T06:47:41.825Z,12.95
2022-11-08T06:52:43.579Z,11.68
2022-11-08T06:57:45.355Z,12.25
2022-11-08T07:02:59.417Z,15.52
2022-11-08T07:08:01.920Z,21.90
2022-11-08T07:13:06.720Z,20.23
2022-11-08T07:18:13.376Z,27.20
2022-11-08T07:23:15.290Z,21.52
2022-11-08T07:28:18.724Z,28.35
2022-11-08T07:33:21.103Z,27.38
2022-11-08T07:38:23.544Z,33.42
2022-11-08T07:43:27.233Z,30.20
2022-11-08T07:48:32.193Z,33.20
2022-11-08T07:53:34.038Z,33.50
2022-11-08T07:58:35.869Z,30.92
2022-11-08T08:03:37.685Z,29.63
2022-11-08T08:08:39.428Z,23.83
2022-11-08T08:13:41.681Z,21.27
2022-11-08T08:18:43.440Z,27.52
2022-11-08T08:23:45.208Z,24.50
2022-11-08T08:28:47.030Z,22.70
2022-11-08T08:33:48.820Z,20.20
2022-11-08T08:38:50.570Z,10.15
2022-11-08T08:43:52.321Z,6.65
2022-11-08T08:48:54.169Z,9.35
2022-11-08T08:53:55.929Z,8.98
2022-11-08T09:04:19.648Z,5.93
2022-11-08T09:09:22.187Z,6.05
2022-11-08T09:14:23.911Z,5.53
2022-11-08T09:19:25.796Z,4.03
2022-11-08T09:24:27.550Z,5.35
2022-11-08T09:29:33.452Z,5.50
2022-11-08T09:34:36.338Z,6.20
2022-11-08T09:39:38.103Z,6.97
2022-11-08T09:44:50.947Z,7.25
2022-11-08T09:50:30.367Z,7.15
2022-11-08T09:55:37.453Z,8.23
2022-11-08T10:00:40.789Z,8.57
2022-11-08T10:05:51.004Z,9.30
2022-11-08T10:10:57.772Z,10.27
2022-11-08T10:16:18.079Z,9.18
2022-11-08T10:21:40.756Z,9.25
2022-11-08T10:26:47.242Z,9.82
2022-11-08T10:31:56.871Z,9.27
2022-11-08T10:37:03.641Z,9.55
2022-11-08T10:42:16.476Z,10.18
2022-11-08T10:47:21.199Z,10.60
2022-11-08T10:52:35.120Z,11.45
2022-11-08T10:57:43.855Z,13.02
2022-11-08T11:02:48.994Z,12.25
2022-11-08T11:07:57.634Z,11.90
2022-11-08T11:13:10.118Z,12.13
2022-11-08T11:18:24.037Z,11.90
2022-11-08T11:23:34.389Z,12.50
2022-11-08T11:28:36.285Z,12.30
2022-11-08T11:33:45.172Z,12.52
2022-11-08T11:38:55.540Z,12.18
2022-11-08T11:44:00.115Z,11.43
2022-11-08T11:49:12.139Z,11.75
2022-11-08T11:54:16.353Z,11.48
2022-11-08T11:59:33.044Z,11.13
2022-11-08T12:05:16.425Z,11.45
2022-11-08T12:10:31.736Z,11.68
2022-11-08T12:15:50.734Z,11.80
2022-11-08T12:21:08.230Z,12.82
2022-11-08T12:26:15.712Z,11.82
2022-11-08T12:31:46.624Z,12.30
2022-11-08T12:37:02.120Z,12.30
2022-11-08T12:42:30.206Z,12.70
2022-11-08T12:47:37.871Z,12.70
2022-11-08T12:52:48.626Z,12.48
2022-11-08T12:57:52.483Z,12.75
2022-11-08T13:03:28.677Z,12.68
2022-11-08T13:08:40.642Z,12.88
2022-11-08T13:13:54.781Z,12.48
2022-11-08T13:19:01.444Z,12.80
2022-11-08T13:24:09.937Z,13.05
2022-11-08T13:29:27.431Z,13.43
2022-11-08T13:35:04.907Z,12.65
2022-11-08T13:40:31.687Z,13.02
2022-11-08T13:45:34.600Z,12.52
2022-11-08T13:50:49.870Z,12.15
2022-11-08T13:55:57.527Z,12.60
2022-11-08T14:01:01.220Z,12.60
2022-11-08T14:06:05.977Z,12.65
2022-11-08T14:11:34.996Z,12.63
2022-11-08T14:16:47.135Z,13.30
2022-11-08T14:21:51.482Z,12.45
2022-11-08T14:26:53.599Z,12.80
2022-11-08T14:32:07.307Z,13.35
2022-11-08T14:37:19.895Z,12.43
2022-11-08T14:42:26.262Z,12.77
2022-11-08T14:47:32.185Z,13.90
2022-11-08T14:52:33.907Z,13.63
2022-11-08T14:57:43.885Z,13.02
2022-11-08T15:03:10.560Z,12.38
2022-11-08T15:08:49.770Z,12.35
2022-11-08T15:13:51.942Z,12.88
2022-11-08T15:18:53.826Z,11.57
2022-11-08T15:24:12.551Z,10.77
2022-11-08T15:29:14.051Z,10.82
2022-11-08T15:34:26.125Z,10.55
2022-11-08T15:39:38.978Z,10.45
2022-11-08T15:45:14.724Z,10.13
2022-11-08T15:50:22.304Z,11.50
2022-11-08T15:55:28.170Z,13.07
2022-11-08T16:00:36.338Z,13.75
2022-11-08T16:05:38.171Z,13.73
2022-11-08T16:10:44.024Z,15.23
2022-11-08T16:15:46.950Z,14.98
2022-11-08T16:20:48.533Z,14.02
2022-11-08T16:25:52.694Z,13.52
2022-11-08T16:30:54.277Z,9.10
2022-11-08T16:35:58.160Z,23.20
2022-11-08T16:41:00.113Z,17.80
2022-11-08T16:46:06.922Z,12.02
2022-11-08T16:51:25.320Z,10.23
2022-11-08T16:56:27.043Z,10.13
2022-11-08T17:01:33.200Z,25.55
2022-11-08T17:06:34.908Z,48.03
2022-11-08T17:11:38.563Z,39.90
2022-11-08T17:16:40.131Z,18.83
2022-11-08T17:21:45.877Z,16.65
2022-11-08T17:26:47.746Z,16.20
2022-11-08T17:31:49.639Z,19.30
2022-11-08T17:36:52.861Z,19.45
2022-11-08T17:41:54.515Z,15.73
2022-11-08T17:46:56.323Z,18.85
2022-11-08T17:51:57.997Z,25.65
2022-11-08T17:56:59.631Z,20.63
2022-11-08T18:02:01.409Z,24.73
2022-11-08T18:07:03.076Z,23.75
2022-11-08T18:12:05.082Z,27.58
2022-11-08T18:17:06.682Z,25.20
2022-11-08T18:22:08.271Z,22.95
2022-11-08T18:27:10.095Z,23.05
2022-11-08T18:32:11.720Z,21.05
2022-11-08T18:37:13.293Z,18.13
2022-11-08T18:42:14.880Z,18.15
2022-11-08T18:47:16.535Z,18.38
2022-11-08T18:52:18.100Z,16.02
2022-11-08T18:57:19.926Z,20.98
2022-11-08T19:02:23.287Z,17.65
2022-11-08T19:07:25.159Z,16.63
2022-11-08T19:12:29.042Z,18.88
2022-11-08T19:17:31.894Z,33.55
2022-11-08T19:22:33.541Z,15.75
2022-11-08T19:27:35.112Z,15.45
2022-11-08T19:32:36.693Z,20.15
2022-11-08T19:37:38.244Z,21.60
2022-11-08T19:42:39.791Z,28.40
2022-11-08T19:47:41.440Z,19.13
2022-11-08T19:52:42.988Z,19.15
2022-11-08T19:57:44.658Z,19.02
2022-11-08T20:02:46.270Z,15.63
2022-11-08T20:07:48.391Z,12.93
2022-11-08T20:12:50.019Z,13.80
2022-11-08T20:17:51.640Z,11.98
2022-11-08T20:22:53.446Z,13.55
2022-11-08T20:27:54.983Z,15.32
2022-11-08T20:32:56.904Z,13.95
2022-11-08T20:37:58.542Z,17.30
2022-11-08T20:43:00.086Z,19.33
2022-11-08T20:48:02.833Z,21.90
2022-11-08T20:53:04.597Z,22.75
2022-11-08T20:58:06.152Z,29.75
2022-11-08T21:03:07.824Z,25.90
2022-11-08T21:08:58.029Z,23.13
2022-11-08T21:13:34.379Z,19.77
2022-11-08T21:18:36.988Z,18.85
2022-11-08T21:23:40.664Z,18.20
2022-11-08T21:28:42.489Z,17.30
2022-11-08T21:33:44.073Z,15.73
2022-11-08T21:38:45.774Z,14.98
2022-11-08T21:43:47.664Z,15.05
2022-11-08T21:49:00.692Z,12.60
2022-11-08T21:54:02.907Z,11.55
2022-11-08T21:59:04.503Z,11.35
2022-11-08T22:04:06.094Z,11.75
2022-11-08T22:09:07.663Z,10.48
2022-11-08T22:14:09.303Z,9.27
2022-11-08T22:19:11.600Z,8.82
2022-11-08T22:24:22.476Z,10.20
2022-11-08T22:29:24.220Z,8.52
2022-11-08T22:34:25.820Z,7.50
2022-11-08T22:39:27.365Z,7.72
2022-11-08T22:44:29.072Z,7.10
2022-11-08T22:49:30.643Z,7.10
2022-11-08T22:54:32.270Z,6.25
2022-11-08T22:59:33.813Z,5.80
2022-11-08T23:04:35.365Z,5.85
2022-11-08T23:09:36.950Z,6.13
2022-11-08T23:14:57.128Z,5.45
2022-11-08T23:20:17.375Z,5.32
2022-11-08T23:25:19.053Z,5.90
2022-11-08T23:30:39.352Z,6.78
2022-11-08T23:36:01.151Z,5.13
2022-11-08T23:41:21.785Z,5.72
2022-11-08T23:46:23.594Z,5.60
2022-11-08T23:51:25.375Z,5.03
2022-11-08T23:56:28.228Z,5.07
